sensor_id;sensor_type;location;lat;lon;timestamp;P1;durP1;ratioP1;P2;durP2;ratioP2
62693;SDS011;48759;52.544;13.418;2022-10-31T00:02:19;49.30;;;30.53;;
62693;SDS011;48759;52.544;13.418;2022-10-31T00:04:46;49.90;;;29.40;;
62693;SDS011;48759;52.544;13.418;2022-10-31T00:07:12;48.13;;;30.07;;
62693;SDS011;48759;52.544;13.418;2022-10-31T00:09:40;46.23;;;27.20;;
62693;SDS011;48759;52.544;13.418;2022-10-31T00:12:06;51.23;;;29.90;;
62693;SDS011;48759;52.544;13.418;2022-10-31T00:14:35;41.97;;;29.20;;
62693;SDS011;48759;52.544;13.418;2022-10-31T00:17:02;41.60;;;28.30;;
62693;SDS011;48759;52.544;13.418;2022-10-31T00:19:28;48.23;;;30.20;;
62693;SDS011;48759;52.544;13.418;2022-10-31T00:21:55;41.80;;;29.40;;
62693;SDS011;48759;52.544;13.418;2022-10-31T00:24:21;43.90;;;27.07;;
62693;SDS011;48759;52.544;13.418;2022-10-31T00:26:49;43.73;;;29.33;;
62693;SDS011;48759;52.544;13.418;2022-10-31T00:29:15;53.10;;;32.47;;
62693;SDS011;48759;52.544;13.418;2022-10-31T00:31:42;42.23;;;28.57;;
62693;SDS011;48759;52.544;13.418;2022-10-31T00:34:08;40.27;;;27.57;;
62693;SDS011;48759;52.544;13.418;2022-10-31T00:36:35;46.33;;;28.53;;
62693;SDS011;48759;52.544;13.418;2022-10-31T00:39:01;47.77;;;30.40;;
62693;SDS011;48759;52.544;13.418;2022-10-31T00:41:27;44.67;;;30.23;;
62693;SDS011;48759;52.544;13.418;2022-10-31T00:43:56;51.43;;;29.83;;
62693;SDS011;48759;52.544;13.418;2022-10-31T00:46:22;50.17;;;28.40;;
62693;SDS011;48759;52.544;13.418;2022-10-31T00:48:48;40.47;;;27.50;;
62693;SDS011;48759;52.544;13.418;2022-10-31T00:51:15;53.13;;;29.17;;
62693;SDS011;48759;52.544;13.418;2022-10-31T00:53:41;47.07;;;29.40;;
62693;SDS011;48759;52.544;13.418;2022-10-31T00:56:08;55.67;;;28.80;;
62693;SDS011;48759;52.544;13.418;2022-10-31T00:58:34;46.73;;;27.50;;
62693;SDS011;48759;52.544;13.418;2022-10-31T01:01:02;39.53;;;26.67;;
62693;SDS011;48759;52.544;13.418;2022-10-31T01:03:30;45.93;;;28.70;;
62693;SDS011;48759;52.544;13.418;2022-10-31T01:05:58;43.23;;;26.13;;
62693;SDS011;48759;52.544;13.418;2022-10-31T01:08:26;48.63;;;26.40;;
62693;SDS011;48759;52.544;13.418;2022-10-31T01:11:03;45.40;;;26.13;;
62693;SDS011;48759;52.544;13.418;2022-10-31T01:13:32;42.17;;;26.60;;
62693;SDS011;48759;52.544;13.418;2022-10-31T01:16:00;45.90;;;25.63;;
62693;SDS011;48759;52.544;13.418;2022-10-31T01:18:28;43.40;;;24.67;;
62693;SDS011;48759;52.544;13.418;2022-10-31T01:20:58;38.13;;;24.93;;
62693;SDS011;48759;52.544;13.418;2022-10-31T01:23:26;41.03;;;24.70;;
62693;SDS011;48759;52.544;13.418;2022-10-31T01:25:59;40.87;;;24.67;;
62693;SDS011;48759;52.544;13.418;2022-10-31T01:28:27;44.53;;;22.60;;
62693;SDS011;48759;52.544;13.418;2022-10-31T01:30:53;36.93;;;23.17;;
62693;SDS011;48759;52.544;13.418;2022-10-31T01:33:20;44.30;;;22.27;;
62693;SDS011;48759;52.544;13.418;2022-10-31T01:35:47;34.63;;;21.97;;
62693;SDS011;48759;52.544;13.418;2022-10-31T01:38:14;30.37;;;20.97;;
62693;SDS011;48759;52.544;13.418;2022-10-31T01:40:40;34.30;;;23.20;;
62693;SDS011;48759;52.544;13.418;2022-10-31T01:43:09;33.47;;;22.67;;
62693;SDS011;48759;52.544;13.418;2022-10-31T01:45:37;40.30;;;22.03;;
62693;SDS011;48759;52.544;13.418;2022-10-31T01:48:04;36.60;;;20.83;;
62693;SDS011;48759;52.544;13.418;2022-10-31T01:50:31;38.73;;;22.63;;
62693;SDS011;48759;52.544;13.418;2022-10-31T01:53:03;37.63;;;21.93;;
62693;SDS011;48759;52.544;13.418;2022-10-31T01:55:34;39.23;;;22.60;;
62693;SDS011;48759;52.544;13.418;2022-10-31T01:58:06;32.67;;;20.33;;
62693;SDS011;48759;52.544;13.418;2022-10-31T02:00:35;39.20;;;21.93;;
62693;SDS011;48759;52.544;13.418;2022-10-31T02:03:02;28.90;;;21.20;;
62693;SDS011;48759;52.544;13.418;2022-10-31T02:05:29;31.07;;;20.90;;
62693;SDS011;48759;52.544;13.418;2022-10-31T02:07:57;36.53;;;20.83;;
62693;SDS011;48759;52.544;13.418;2022-10-31T02:10:29;33.77;;;21.13;;
62693;SDS011;48759;52.544;13.418;2022-10-31T02:12:57;34.43;;;21.77;;
62693;SDS011;48759;52.544;13.418;2022-10-31T02:15:26;36.40;;;21.40;;
62693;SDS011;48759;52.544;13.418;2022-10-31T02:17:54;30.83;;;21.77;;
62693;SDS011;48759;52.544;13.418;2022-10-31T02:20:21;36.53;;;21.90;;
62693;SDS011;48759;52.544;13.418;2022-10-31T02:23:00;33.27;;;21.63;;
62693;SDS011;48759;52.544;13.418;2022-10-31T02:26:05;35.07;;;21.03;;
62693;SDS011;48759;52.544;13.418;2022-10-31T02:28:56;29.70;;;20.53;;
62693;SDS011;48759;52.544;13.418;2022-10-31T02:31:44;29.13;;;19.97;;
62693;SDS011;48759;52.544;13.418;2022-10-31T02:34:19;37.70;;;21.60;;
62693;SDS011;48759;52.544;13.418;2022-10-31T02:36:51;35.53;;;21.40;;
62693;SDS011;48759;52.544;13.418;2022-10-31T02:39:22;34.10;;;22.37;;
62693;SDS011;48759;52.544;13.418;2022-10-31T02:41:52;39.93;;;21.77;;
62693;SDS011;48759;52.544;13.418;2022-10-31T02:44:28;33.07;;;21.50;;
62693;SDS011;48759;52.544;13.418;2022-10-31T02:47:01;32.80;;;21.20;;
62693;SDS011;48759;52.544;13.418;2022-10-31T02:49:32;41.90;;;23.10;;
62693;SDS011;48759;52.544;13.418;2022-10-31T02:52:12;32.27;;;21.10;;
62693;SDS011;48759;52.544;13.418;2022-10-31T02:54:40;37.20;;;21.00;;
62693;SDS011;48759;52.544;13.418;2022-10-31T02:57:06;28.50;;;20.90;;
62693;SDS011;48759;52.544;13.418;2022-10-31T02:59:34;38.47;;;20.90;;
62693;SDS011;48759;52.544;13.418;2022-10-31T03:02:07;35.37;;;21.13;;
62693;SDS011;48759;52.544;13.418;2022-10-31T03:07:40;31.70;;;20.67;;
62693;SDS011;48759;52.544;13.418;2022-10-31T03:10:14;33.30;;;20.33;;
62693;SDS011;48759;52.544;13.418;2022-10-31T03:12:49;32.43;;;20.83;;
62693;SDS011;48759;52.544;13.418;2022-10-31T03:15:26;38.03;;;22.20;;
62693;SDS011;48759;52.544;13.418;2022-10-31T03:17:58;38.73;;;21.43;;
62693;SDS011;48759;52.544;13.418;2022-10-31T03:20:32;31.93;;;20.10;;
62693;SDS011;48759;52.544;13.418;2022-10-31T03:23:02;42.27;;;21.30;;
62693;SDS011;48759;52.544;13.418;2022-10-31T03:25:30;37.50;;;19.83;;
62693;SDS011;48759;52.544;13.418;2022-10-31T03:27:58;34.87;;;21.40;;
62693;SDS011;48759;52.544;13.418;2022-10-31T03:30:28;33.67;;;21.90;;
62693;SDS011;48759;52.544;13.418;2022-10-31T03:32:55;35.40;;;21.07;;
62693;SDS011;48759;52.544;13.418;2022-10-31T03:35:25;36.13;;;19.07;;
62693;SDS011;48759;52.544;13.418;2022-10-31T03:37:54;33.90;;;18.40;;
62693;SDS011;48759;52.544;13.418;2022-10-31T03:40:22;31.93;;;18.60;;
62693;SDS011;48759;52.544;13.418;2022-10-31T03:42:53;33.33;;;19.83;;
62693;SDS011;48759;52.544;13.418;2022-10-31T03:45:23;34.47;;;19.97;;
62693;SDS011;48759;52.544;13.418;2022-10-31T03:47:52;31.20;;;19.07;;
62693;SDS011;48759;52.544;13.418;2022-10-31T03:50:21;30.47;;;17.60;;
62693;SDS011;48759;52.544;13.418;2022-10-31T03:52:53;27.80;;;17.83;;
62693;SDS011;48759;52.544;13.418;2022-10-31T03:55:24;30.23;;;17.93;;
62693;SDS011;48759;52.544;13.418;2022-10-31T03:57:55;34.13;;;18.20;;
62693;SDS011;48759;52.544;13.418;2022-10-31T04:00:25;22.40;;;17.33;;
62693;SDS011;48759;52.544;13.418;2022-10-31T04:02:53;29.77;;;18.60;;
62693;SDS011;48759;52.544;13.418;2022-10-31T04:05:25;28.83;;;17.87;;
62693;SDS011;48759;52.544;13.418;2022-10-31T04:07:54;36.53;;;18.97;;
62693;SDS011;48759;52.544;13.418;2022-10-31T04:10:23;32.13;;;17.67;;
62693;SDS011;48759;52.544;13.418;2022-10-31T04:12:52;27.53;;;18.50;;
62693;SDS011;48759;52.544;13.418;2022-10-31T04:15:23;30.70;;;18.43;;
62693;SDS011;48759;52.544;13.418;2022-10-31T04:17:52;24.30;;;17.23;;
62693;SDS011;48759;52.544;13.418;2022-10-31T04:20:30;29.33;;;17.13;;
62693;SDS011;48759;52.544;13.418;2022-10-31T04:22:57;30.20;;;16.73;;
62693;SDS011;48759;52.544;13.418;2022-10-31T04:25:25;29.63;;;17.83;;
62693;SDS011;48759;52.544;13.418;2022-10-31T04:27:51;24.07;;;17.63;;
62693;SDS011;48759;52.544;13.418;2022-10-31T04:30:17;29.43;;;17.17;;
62693;SDS011;48759;52.544;13.418;2022-10-31T04:32:44;32.23;;;17.60;;
62693;SDS011;48759;52.544;13.418;2022-10-31T04:35:10;29.07;;;15.63;;
62693;SDS011;48759;52.544;13.418;2022-10-31T04:37:38;31.07;;;17.60;;
62693;SDS011;48759;52.544;13.418;2022-10-31T04:40:05;28.57;;;17.00;;
62693;SDS011;48759;52.544;13.418;2022-10-31T04:42:32;32.67;;;17.17;;
62693;SDS011;48759;52.544;13.418;2022-10-31T04:44:58;26.63;;;16.60;;
62693;SDS011;48759;52.544;13.418;2022-10-31T04:47:25;27.93;;;16.60;;
62693;SDS011;48759;52.544;13.418;2022-10-31T04:49:51;32.90;;;17.27;;
62693;SDS011;48759;52.544;13.418;2022-10-31T04:52:18;26.17;;;17.30;;
62693;SDS011;48759;52.544;13.418;2022-10-31T04:54:45;27.03;;;18.23;;
62693;SDS011;48759;52.544;13.418;2022-10-31T04:57:12;33.43;;;18.07;;
62693;SDS011;48759;52.544;13.418;2022-10-31T04:59:38;33.90;;;17.67;;
62693;SDS011;48759;52.544;13.418;2022-10-31T05:02:05;32.50;;;18.40;;
62693;SDS011;48759;52.544;13.418;2022-10-31T05:04:31;33.17;;;19.03;;
62693;SDS011;48759;52.544;13.418;2022-10-31T05:06:57;37.17;;;18.77;;
62693;SDS011;48759;52.544;13.418;2022-10-31T05:09:24;37.40;;;19.07;;
62693;SDS011;48759;52.544;13.418;2022-10-31T05:11:52;27.20;;;17.90;;
62693;SDS011;48759;52.544;13.418;2022-10-31T05:14:18;30.27;;;18.20;;
62693;SDS011;48759;52.544;13.418;2022-10-31T05:16:44;30.93;;;18.43;;
62693;SDS011;48759;52.544;13.418;2022-10-31T05:19:11;39.80;;;21.97;;
62693;SDS011;48759;52.544;13.418;2022-10-31T05:21:37;31.87;;;17.87;;
62693;SDS011;48759;52.544;13.418;2022-10-31T05:24:04;33.83;;;18.30;;
62693;SDS011;48759;52.544;13.418;2022-10-31T05:26:31;26.30;;;17.93;;
62693;SDS011;48759;52.544;13.418;2022-10-31T05:28:59;29.00;;;18.00;;
62693;SDS011;48759;52.544;13.418;2022-10-31T05:31:25;36.60;;;19.00;;
62693;SDS011;48759;52.544;13.418;2022-10-31T05:33:51;27.50;;;19.00;;
62693;SDS011;48759;52.544;13.418;2022-10-31T05:36:18;32.83;;;19.07;;
62693;SDS011;48759;52.544;13.418;2022-10-31T05:38:44;25.40;;;18.10;;
62693;SDS011;48759;52.544;13.418;2022-10-31T05:41:11;34.77;;;18.50;;
62693;SDS011;48759;52.544;13.418;2022-10-31T05:43:37;39.43;;;18.43;;
62693;SDS011;48759;52.544;13.418;2022-10-31T05:46:05;37.43;;;20.03;;
62693;SDS011;48759;52.544;13.418;2022-10-31T05:48:31;31.50;;;18.13;;
62693;SDS011;48759;52.544;13.418;2022-10-31T05:50:58;41.37;;;18.20;;
62693;SDS011;48759;52.544;13.418;2022-10-31T05:53:24;36.77;;;19.43;;
62693;SDS011;48759;52.544;13.418;2022-10-31T05:55:51;32.13;;;18.77;;
62693;SDS011;48759;52.544;13.418;2022-10-31T05:58:17;29.17;;;18.03;;
62693;SDS011;48759;52.544;13.418;2022-10-31T06:00:44;30.60;;;18.33;;
62693;SDS011;48759;52.544;13.418;2022-10-31T06:03:11;30.90;;;18.43;;
62693;SDS011;48759;52.544;13.418;2022-10-31T06:05:38;35.80;;;19.43;;
62693;SDS011;48759;52.544;13.418;2022-10-31T06:08:04;37.73;;;19.40;;
62693;SDS011;48759;52.544;13.418;2022-10-31T06:10:31;33.47;;;17.93;;
62693;SDS011;48759;52.544;13.418;2022-10-31T06:12:58;31.30;;;17.63;;
62693;SDS011;48759;52.544;13.418;2022-10-31T06:15:24;57.47;;;18.07;;
62693;SDS011;48759;52.544;13.418;2022-10-31T06:17:57;34.53;;;19.57;;
62693;SDS011;48759;52.544;13.418;2022-10-31T06:20:26;37.90;;;19.63;;
62693;SDS011;48759;52.544;13.418;2022-10-31T06:22:53;39.70;;;18.17;;
62693;SDS011;48759;52.544;13.418;2022-10-31T06:25:19;29.20;;;17.43;;
62693;SDS011;48759;52.544;13.418;2022-10-31T06:27:45;28.13;;;18.10;;
62693;SDS011;48759;52.544;13.418;2022-10-31T06:30:12;31.17;;;18.03;;
62693;SDS011;48759;52.544;13.418;2022-10-31T06:32:39;26.87;;;18.10;;
62693;SDS011;48759;52.544;13.418;2022-10-31T06:35:05;36.10;;;19.13;;
62693;SDS011;48759;52.544;13.418;2022-10-31T06:37:33;28.13;;;18.93;;
62693;SDS011;48759;52.544;13.418;2022-10-31T06:40:00;37.57;;;18.57;;
62693;SDS011;48759;52.544;13.418;2022-10-31T06:42:26;38.50;;;18.83;;
62693;SDS011;48759;52.544;13.418;2022-10-31T06:44:53;33.27;;;18.63;;
62693;SDS011;48759;52.544;13.418;2022-10-31T06:47:19;38.20;;;19.00;;
62693;SDS011;48759;52.544;13.418;2022-10-31T06:49:45;36.00;;;19.03;;
62693;SDS011;48759;52.544;13.418;2022-10-31T06:52:12;30.90;;;18.83;;
62693;SDS011;48759;52.544;13.418;2022-10-31T06:54:40;28.47;;;18.60;;
62693;SDS011;48759;52.544;13.418;2022-10-31T06:57:06;31.57;;;17.67;;
62693;SDS011;48759;52.544;13.418;2022-10-31T06:59:32;25.50;;;17.77;;
62693;SDS011;48759;52.544;13.418;2022-10-31T07:01:59;31.90;;;19.63;;
62693;SDS011;48759;52.544;13.418;2022-10-31T07:04:25;30.40;;;18.93;;
62693;SDS011;48759;52.544;13.418;2022-10-31T07:06:52;28.90;;;18.00;;
62693;SDS011;48759;52.544;13.418;2022-10-31T07:09:18;29.73;;;17.20;;
62693;SDS011;48759;52.544;13.418;2022-10-31T07:11:46;32.23;;;17.53;;
62693;SDS011;48759;52.544;13.418;2022-10-31T07:14:13;32.97;;;18.17;;
62693;SDS011;48759;52.544;13.418;2022-10-31T07:16:39;29.23;;;18.03;;
62693;SDS011;48759;52.544;13.418;2022-10-31T07:19:06;29.43;;;19.20;;
62693;SDS011;48759;52.544;13.418;2022-10-31T07:21:32;31.03;;;18.10;;
62693;SDS011;48759;52.544;13.418;2022-10-31T07:23:59;29.97;;;17.50;;
62693;SDS011;48759;52.544;13.418;2022-10-31T07:26:25;32.27;;;18.60;;
62693;SDS011;48759;52.544;13.418;2022-10-31T07:28:54;34.93;;;18.30;;
62693;SDS011;48759;52.544;13.418;2022-10-31T07:31:20;29.90;;;18.47;;
62693;SDS011;48759;52.544;13.418;2022-10-31T07:33:47;32.90;;;17.30;;
62693;SDS011;48759;52.544;13.418;2022-10-31T07:36:13;31.60;;;17.60;;
62693;SDS011;48759;52.544;13.418;2022-10-31T07:38:40;34.90;;;18.53;;
62693;SDS011;48759;52.544;13.418;2022-10-31T07:41:07;32.00;;;17.80;;
62693;SDS011;48759;52.544;13.418;2022-10-31T07:46:22;36.00;;;20.50;;
62693;SDS011;48759;52.544;13.418;2022-10-31T07:48:52;34.50;;;19.43;;
62693;SDS011;48759;52.544;13.418;2022-10-31T07:51:22;30.27;;;20.47;;
62693;SDS011;48759;52.544;13.418;2022-10-31T07:53:52;41.17;;;20.47;;
62693;SDS011;48759;52.544;13.418;2022-10-31T07:56:21;35.60;;;18.53;;
62693;SDS011;48759;52.544;13.418;2022-10-31T07:58:47;32.13;;;18.10;;
62693;SDS011;48759;52.544;13.418;2022-10-31T08:01:15;35.70;;;19.70;;
62693;SDS011;48759;52.544;13.418;2022-10-31T08:03:42;34.70;;;21.00;;
62693;SDS011;48759;52.544;13.418;2022-10-31T08:06:08;37.17;;;20.43;;
62693;SDS011;48759;52.544;13.418;2022-10-31T08:08:35;36.80;;;20.03;;
62693;SDS011;48759;52.544;13.418;2022-10-31T08:11:02;30.83;;;19.33;;
62693;SDS011;48759;52.544;13.418;2022-10-31T08:13:28;36.03;;;21.67;;
62693;SDS011;48759;52.544;13.418;2022-10-31T08:15:56;37.20;;;20.13;;
62693;SDS011;48759;52.544;13.418;2022-10-31T08:18:29;35.97;;;20.17;;
62693;SDS011;48759;52.544;13.418;2022-10-31T08:20:56;38.07;;;20.83;;
62693;SDS011;48759;52.544;13.418;2022-10-31T08:23:22;35.53;;;21.37;;
62693;SDS011;48759;52.544;13.418;2022-10-31T08:25:49;37.97;;;20.27;;
62693;SDS011;48759;52.544;13.418;2022-10-31T08:28:15;33.87;;;21.10;;
62693;SDS011;48759;52.544;13.418;2022-10-31T08:30:42;36.67;;;22.43;;
62693;SDS011;48759;52.544;13.418;2022-10-31T08:33:09;39.87;;;21.23;;
62693;SDS011;48759;52.544;13.418;2022-10-31T08:35:38;41.03;;;21.27;;
62693;SDS011;48759;52.544;13.418;2022-10-31T08:38:05;33.83;;;21.23;;
62693;SDS011;48759;52.544;13.418;2022-10-31T08:40:33;41.77;;;23.40;;
62693;SDS011;48759;52.544;13.418;2022-10-31T08:43:00;40.20;;;22.53;;
62693;SDS011;48759;52.544;13.418;2022-10-31T08:45:28;36.60;;;23.27;;
62693;SDS011;48759;52.544;13.418;2022-10-31T08:47:56;43.07;;;22.20;;
62693;SDS011;48759;52.544;13.418;2022-10-31T08:50:24;39.40;;;22.50;;
62693;SDS011;48759;52.544;13.418;2022-10-31T08:52:52;49.27;;;23.90;;
62693;SDS011;48759;52.544;13.418;2022-10-31T08:55:19;38.17;;;22.90;;
62693;SDS011;48759;52.544;13.418;2022-10-31T08:57:45;33.13;;;21.87;;
62693;SDS011;48759;52.544;13.418;2022-10-31T09:00:12;33.20;;;23.00;;
62693;SDS011;48759;52.544;13.418;2022-10-31T09:02:39;48.50;;;23.70;;
62693;SDS011;48759;52.544;13.418;2022-10-31T09:05:05;36.90;;;22.40;;
62693;SDS011;48759;52.544;13.418;2022-10-31T09:07:32;33.80;;;22.70;;
62693;SDS011;48759;52.544;13.418;2022-10-31T09:10:00;44.90;;;22.60;;
62693;SDS011;48759;52.544;13.418;2022-10-31T09:12:27;40.40;;;23.20;;
62693;SDS011;48759;52.544;13.418;2022-10-31T09:14:53;40.67;;;22.90;;
62693;SDS011;48759;52.544;13.418;2022-10-31T09:17:19;44.23;;;22.30;;
62693;SDS011;48759;52.544;13.418;2022-10-31T09:19:46;37.80;;;24.40;;
62693;SDS011;48759;52.544;13.418;2022-10-31T09:22:12;33.23;;;22.17;;
62693;SDS011;48759;52.544;13.418;2022-10-31T09:24:39;36.97;;;24.07;;
62693;SDS011;48759;52.544;13.418;2022-10-31T09:27:07;39.20;;;24.50;;
62693;SDS011;48759;52.544;13.418;2022-10-31T09:29:34;38.70;;;23.10;;
62693;SDS011;48759;52.544;13.418;2022-10-31T09:32:00;42.77;;;23.30;;
62693;SDS011;48759;52.544;13.418;2022-10-31T09:34:27;35.97;;;24.57;;
62693;SDS011;48759;52.544;13.418;2022-10-31T09:36:54;45.20;;;24.50;;
62693;SDS011;48759;52.544;13.418;2022-10-31T09:39:20;40.23;;;25.33;;
62693;SDS011;48759;52.544;13.418;2022-10-31T09:41:52;35.57;;;23.83;;
62693;SDS011;48759;52.544;13.418;2022-10-31T09:44:31;35.57;;;22.77;;
62693;SDS011;48759;52.544;13.418;2022-10-31T09:47:10;44.80;;;25.90;;
62693;SDS011;48759;52.544;13.418;2022-10-31T09:49:48;53.43;;;26.07;;
62693;SDS011;48759;52.544;13.418;2022-10-31T09:52:26;41.30;;;23.00;;
62693;SDS011;48759;52.544;13.418;2022-10-31T09:54:58;42.57;;;24.97;;
62693;SDS011;48759;52.544;13.418;2022-10-31T09:57:29;37.33;;;24.00;;
62693;SDS011;48759;52.544;13.418;2022-10-31T10:00:00;47.10;;;25.60;;
62693;SDS011;48759;52.544;13.418;2022-10-31T10:02:31;41.43;;;23.90;;
62693;SDS011;48759;52.544;13.418;2022-10-31T10:05:03;39.13;;;24.20;;
62693;SDS011;48759;52.544;13.418;2022-10-31T10:07:34;39.30;;;23.40;;
62693;SDS011;48759;52.544;13.418;2022-10-31T10:10:12;43.20;;;24.63;;
62693;SDS011;48759;52.544;13.418;2022-10-31T10:12:43;52.60;;;24.60;;
62693;SDS011;48759;52.544;13.418;2022-10-31T10:15:34;38.63;;;22.80;;
62693;SDS011;48759;52.544;13.418;2022-10-31T10:18:13;49.10;;;23.47;;
62693;SDS011;48759;52.544;13.418;2022-10-31T10:20:50;41.37;;;22.97;;
62693;SDS011;48759;52.544;13.418;2022-10-31T10:23:34;41.77;;;24.43;;
62693;SDS011;48759;52.544;13.418;2022-10-31T10:26:13;41.10;;;24.50;;
62693;SDS011;48759;52.544;13.418;2022-10-31T10:28:43;42.47;;;23.40;;
62693;SDS011;48759;52.544;13.418;2022-10-31T10:31:15;39.77;;;25.20;;
62693;SDS011;48759;52.544;13.418;2022-10-31T10:33:46;48.43;;;25.57;;
62693;SDS011;48759;52.544;13.418;2022-10-31T10:36:21;45.03;;;26.17;;
62693;SDS011;48759;52.544;13.418;2022-10-31T10:38:57;42.30;;;26.10;;
62693;SDS011;48759;52.544;13.418;2022-10-31T10:41:29;47.50;;;25.10;;
62693;SDS011;48759;52.544;13.418;2022-10-31T10:43:58;38.40;;;24.00;;
62693;SDS011;48759;52.544;13.418;2022-10-31T10:46:28;42.00;;;24.50;;
62693;SDS011;48759;52.544;13.418;2022-10-31T10:49:25;40.40;;;24.50;;
62693;SDS011;48759;52.544;13.418;2022-10-31T10:51:59;39.77;;;25.00;;
62693;SDS011;48759;52.544;13.418;2022-10-31T10:57:35;39.10;;;24.47;;
62693;SDS011;48759;52.544;13.418;2022-10-31T11:00:16;45.23;;;26.03;;
62693;SDS011;48759;52.544;13.418;2022-10-31T11:02:46;51.50;;;25.70;;
62693;SDS011;48759;52.544;13.418;2022-10-31T11:05:15;41.57;;;26.13;;
62693;SDS011;48759;52.544;13.418;2022-10-31T11:07:49;41.00;;;25.83;;
62693;SDS011;48759;52.544;13.418;2022-10-31T11:10:16;52.80;;;29.20;;
62693;SDS011;48759;52.544;13.418;2022-10-31T11:12:44;45.53;;;27.07;;
62693;SDS011;48759;52.544;13.418;2022-10-31T11:15:23;39.83;;;26.13;;
62693;SDS011;48759;52.544;13.418;2022-10-31T11:17:55;44.93;;;26.00;;
62693;SDS011;48759;52.544;13.418;2022-10-31T11:20:24;44.17;;;27.60;;
62693;SDS011;48759;52.544;13.418;2022-10-31T11:23:00;46.20;;;26.80;;
62693;SDS011;48759;52.544;13.418;2022-10-31T11:25:29;44.37;;;26.57;;
62693;SDS011;48759;52.544;13.418;2022-10-31T11:27:59;42.40;;;24.47;;
62693;SDS011;48759;52.544;13.418;2022-10-31T11:30:27;45.83;;;27.00;;
62693;SDS011;48759;52.544;13.418;2022-10-31T11:32:56;50.60;;;26.93;;
62693;SDS011;48759;52.544;13.418;2022-10-31T11:35:23;49.77;;;27.67;;
62693;SDS011;48759;52.544;13.418;2022-10-31T11:37:52;46.03;;;28.80;;
62693;SDS011;48759;52.544;13.418;2022-10-31T11:40:20;54.67;;;28.53;;
62693;SDS011;48759;52.544;13.418;2022-10-31T11:42:49;42.70;;;24.80;;
62693;SDS011;48759;52.544;13.418;2022-10-31T11:45:19;44.83;;;24.73;;
62693;SDS011;48759;52.544;13.418;2022-10-31T11:48:23;48.73;;;27.07;;
62693;SDS011;48759;52.544;13.418;2022-10-31T11:51:05;50.87;;;26.83;;
62693;SDS011;48759;52.544;13.418;2022-10-31T11:53:36;51.80;;;29.00;;
62693;SDS011;48759;52.544;13.418;2022-10-31T11:56:05;41.33;;;26.10;;
62693;SDS011;48759;52.544;13.418;2022-10-31T11:58:36;39.87;;;25.67;;
62693;SDS011;48759;52.544;13.418;2022-10-31T12:01:05;39.27;;;25.33;;
62693;SDS011;48759;52.544;13.418;2022-10-31T12:04:04;49.87;;;26.60;;
62693;SDS011;48759;52.544;13.418;2022-10-31T12:06:37;42.03;;;26.37;;
62693;SDS011;48759;52.544;13.418;2022-10-31T12:09:10;54.50;;;29.13;;
62693;SDS011;48759;52.544;13.418;2022-10-31T12:11:48;43.83;;;27.77;;
62693;SDS011;48759;52.544;13.418;2022-10-31T12:14:32;48.27;;;27.47;;
62693;SDS011;48759;52.544;13.418;2022-10-31T12:17:05;44.43;;;28.33;;
62693;SDS011;48759;52.544;13.418;2022-10-31T12:19:40;45.80;;;28.33;;
62693;SDS011;48759;52.544;13.418;2022-10-31T12:25:00;52.57;;;28.30;;
62693;SDS011;48759;52.544;13.418;2022-10-31T12:27:53;53.13;;;29.50;;
62693;SDS011;48759;52.544;13.418;2022-10-31T12:30:33;43.90;;;27.13;;
62693;SDS011;48759;52.544;13.418;2022-10-31T12:33:26;52.03;;;27.80;;
62693;SDS011;48759;52.544;13.418;2022-10-31T12:39:02;43.43;;;26.80;;
62693;SDS011;48759;52.544;13.418;2022-10-31T12:41:46;48.73;;;27.60;;
62693;SDS011;48759;52.544;13.418;2022-10-31T12:44:27;44.20;;;27.20;;
62693;SDS011;48759;52.544;13.418;2022-10-31T12:47:09;52.50;;;26.87;;
62693;SDS011;48759;52.544;13.418;2022-10-31T12:50:07;49.23;;;29.43;;
62693;SDS011;48759;52.544;13.418;2022-10-31T12:52:51;46.90;;;27.63;;
62693;SDS011;48759;52.544;13.418;2022-10-31T12:55:37;48.93;;;27.80;;
62693;SDS011;48759;52.544;13.418;2022-10-31T12:58:14;44.93;;;26.93;;
62693;SDS011;48759;52.544;13.418;2022-10-31T13:00:48;48.37;;;27.67;;
62693;SDS011;48759;52.544;13.418;2022-10-31T13:03:24;46.60;;;28.17;;
62693;SDS011;48759;52.544;13.418;2022-10-31T13:05:54;46.07;;;25.57;;
62693;SDS011;48759;52.544;13.418;2022-10-31T13:08:27;39.97;;;25.90;;
62693;SDS011;48759;52.544;13.418;2022-10-31T13:11:02;42.10;;;27.17;;
62693;SDS011;48759;52.544;13.418;2022-10-31T13:13:35;44.83;;;27.33;;
62693;SDS011;48759;52.544;13.418;2022-10-31T13:16:08;43.80;;;26.43;;
62693;SDS011;48759;52.544;13.418;2022-10-31T13:18:40;46.53;;;26.17;;
62693;SDS011;48759;52.544;13.418;2022-10-31T13:21:12;42.43;;;27.37;;
62693;SDS011;48759;52.544;13.418;2022-10-31T13:23:45;50.17;;;27.43;;
62693;SDS011;48759;52.544;13.418;2022-10-31T13:26:16;40.20;;;24.70;;
62693;SDS011;48759;52.544;13.418;2022-10-31T13:28:50;41.07;;;27.07;;
62693;SDS011;48759;52.544;13.418;2022-10-31T13:31:22;41.70;;;25.20;;
62693;SDS011;48759;52.544;13.418;2022-10-31T13:33:49;45.80;;;26.50;;
62693;SDS011;48759;52.544;13.418;2022-10-31T13:36:21;43.80;;;26.10;;
62693;SDS011;48759;52.544;13.418;2022-10-31T13:38:58;41.67;;;25.50;;
62693;SDS011;48759;52.544;13.418;2022-10-31T13:41:32;37.93;;;24.90;;
62693;SDS011;48759;52.544;13.418;2022-10-31T13:44:10;42.10;;;27.10;;
62693;SDS011;48759;52.544;13.418;2022-10-31T13:46:41;39.77;;;25.67;;
62693;SDS011;48759;52.544;13.418;2022-10-31T13:49:25;46.87;;;25.93;;
62693;SDS011;48759;52.544;13.418;2022-10-31T13:52:14;44.37;;;24.30;;
62693;SDS011;48759;52.544;13.418;2022-10-31T13:54:43;42.33;;;27.00;;
62693;SDS011;48759;52.544;13.418;2022-10-31T13:57:16;44.57;;;27.10;;
62693;SDS011;48759;52.544;13.418;2022-10-31T13:59:48;42.27;;;25.07;;
62693;SDS011;48759;52.544;13.418;2022-10-31T14:02:18;39.30;;;26.13;;
62693;SDS011;48759;52.544;13.418;2022-10-31T14:04:51;39.00;;;24.90;;
62693;SDS011;48759;52.544;13.418;2022-10-31T14:07:22;43.80;;;26.67;;
62693;SDS011;48759;52.544;13.418;2022-10-31T14:09:54;44.70;;;26.47;;
62693;SDS011;48759;52.544;13.418;2022-10-31T14:12:24;47.97;;;26.83;;
62693;SDS011;48759;52.544;13.418;2022-10-31T14:14:55;47.30;;;28.10;;
62693;SDS011;48759;52.544;13.418;2022-10-31T14:17:24;41.87;;;25.20;;
62693;SDS011;48759;52.544;13.418;2022-10-31T14:19:58;38.17;;;24.67;;
62693;SDS011;48759;52.544;13.418;2022-10-31T14:22:28;48.87;;;29.80;;
62693;SDS011;48759;52.544;13.418;2022-10-31T14:24:57;55.80;;;31.20;;
62693;SDS011;48759;52.544;13.418;2022-10-31T14:27:32;51.43;;;33.40;;
62693;SDS011;48759;52.544;13.418;2022-10-31T14:30:13;54.63;;;34.33;;
62693;SDS011;48759;52.544;13.418;2022-10-31T14:32:41;57.23;;;33.87;;
62693;SDS011;48759;52.544;13.418;2022-10-31T14:35:09;60.53;;;35.87;;
62693;SDS011;48759;52.544;13.418;2022-10-31T14:37:49;65.70;;;36.00;;
62693;SDS011;48759;52.544;13.418;2022-10-31T14:40:31;59.30;;;34.60;;
62693;SDS011;48759;52.544;13.418;2022-10-31T14:43:11;57.97;;;36.30;;